createdAt,value
2019-02-27T00:01:08.055Z,97251.64
2019-02-27T00:03:40.140Z,97250.55
2019-02-27T00:06:12.934Z,97248.38
2019-02-27T00:08:46.850Z,97256.24
2019-02-27T00:11:18.854Z,97256.75
2019-02-27T00:13:51.126Z,97256.05
2019-02-27T00:16:23.211Z,97262.80
2019-02-27T00:18:58.670Z,97267.60
2019-02-27T00:21:28.005Z,97263.19
2019-02-27T00:23:59.201Z,97264.17
2019-02-27T00:26:31.845Z,97274.48
2019-02-27T00:29:03.262Z,97270.59
2019-02-27T00:31:34.439Z,97277.26
2019-02-27T00:34:05.938Z,97272.03
2019-02-27T00:36:37.799Z,97266.28
2019-02-27T00:39:09.153Z,97271.20
2019-02-27T00:41:43.118Z,97278.63
2019-02-27T00:44:14.578Z,97277.25
2019-02-27T00:46:46.366Z,97281.77
2019-02-27T00:49:18.178Z,97277.17
2019-02-27T00:51:49.955Z,97276.27
2019-02-27T00:54:21.252Z,97273.67
2019-02-27T00:56:53.228Z,97272.77
2019-02-27T00:59:24.970Z,97280.68
2019-02-27T01:01:57.565Z,97266.55
2019-02-27T01:04:29.842Z,97276.72
2019-02-27T01:07:01.075Z,97266.55
2019-02-27T01:09:33.049Z,97266.91
2019-02-27T01:12:04.327Z,97268.81
2019-02-27T01:14:37.081Z,97264.06
2019-02-27T01:17:09.096Z,97260.62
2019-02-27T01:19:42.650Z,97259.72
2019-02-27T01:22:13.937Z,97261.19
2019-02-27T01:24:45.109Z,97262.09
2019-02-27T01:27:17.036Z,97254.37
2019-02-27T01:29:50.758Z,97250.92
2019-02-27T01:32:21.378Z,97255.65
2019-02-27T01:34:53.049Z,97255.31
2019-02-27T01:37:31.340Z,97256.59
2019-02-27T01:40:00.278Z,97253.15
2019-02-27T01:42:32.921Z,97244.69
2019-02-27T01:45:07.187Z,97245.59
2019-02-27T01:47:39.013Z,97249.91
2019-02-27T01:50:33.841Z,97241.61
2019-02-27T01:53:07.419Z,97237.31
2019-02-27T01:55:40.994Z,97241.63
2019-02-27T01:58:12.850Z,97239.14
2019-02-27T02:00:44.087Z,97234.40
2019-02-27T02:03:16.055Z,97235.48
2019-02-27T02:05:48.106Z,97234.56
2019-02-27T02:08:20.126Z,97225.79
2019-02-27T02:10:54.126Z,97228.98
2019-02-27T02:13:50.330Z,97226.38
2019-02-27T02:16:54.708Z,97224.46
2019-02-27T02:19:53.990Z,97230.19
2019-02-27T02:23:14.304Z,97229.41
2019-02-27T02:26:22.288Z,97231.36
2019-02-27T02:29:24.270Z,97238.73
2019-02-27T02:32:17.109Z,97248.28
2019-02-27T02:35:26.730Z,97246.95
2019-02-27T02:38:54.088Z,97242.73
2019-02-27T02:41:59.956Z,97242.98
2019-02-27T02:45:15.332Z,97243.84
2019-02-27T02:48:31.072Z,97230.78
2019-02-27T02:51:44.724Z,97226.08
2019-02-27T02:54:38.137Z,97228.50
2019-02-27T02:57:57.840Z,97227.95
2019-02-27T03:01:15.211Z,97218.81
2019-02-27T03:04:37.256Z,97216.53
2019-02-27T03:07:26.326Z,97218.09
2019-02-27T03:10:35.643Z,97218.84
2019-02-27T03:13:31.366Z,97221.01
2019-02-27T03:16:24.787Z,97227.89
2019-02-27T03:19:41.224Z,97232.13
2019-02-27T03:22:47.852Z,97236.72
2019-02-27T03:25:50.340Z,97227.70
2019-02-27T03:29:16.972Z,97220.05
2019-02-27T03:32:17.220Z,97222.11
2019-02-27T03:35:28.014Z,97220.28
2019-02-27T03:38:23.855Z,97221.13
2019-02-27T03:41:27.732Z,97225.98
2019-02-27T03:44:27.586Z,97226.03
2019-02-27T03:47:29.683Z,97231.03
2019-02-27T03:50:29.574Z,97231.80
2019-02-27T03:53:35.094Z,97226.61
2019-02-27T03:57:18.918Z,97235.59
2019-02-27T04:00:19.296Z,97235.05
2019-02-27T04:03:26.461Z,97236.38
2019-02-27T04:06:40.756Z,97229.80
2019-02-27T04:09:12.244Z,97235.27
2019-02-27T04:11:44.202Z,97238.39
2019-02-27T04:14:32.753Z,97243.60
2019-02-27T04:17:07.030Z,97249.78
2019-02-27T04:19:39.254Z,97242.17
2019-02-27T04:22:11.111Z,97235.73
2019-02-27T04:24:43.089Z,97240.96
2019-02-27T04:27:19.971Z,97237.16
2019-02-27T04:29:49.416Z,97228.51
2019-02-27T04:32:21.789Z,97227.19
2019-02-27T04:34:52.958Z,97220.02
2019-02-27T04:37:24.164Z,97219.10
2019-02-27T04:39:55.959Z,97215.11
2019-02-27T04:42:28.767Z,97216.16
2019-02-27T04:44:59.963Z,97211.05
2019-02-27T04:47:31.401Z,97205.17
2019-02-27T04:50:02.951Z,97212.82
2019-02-27T04:52:34.364Z,97213.16
2019-02-27T04:55:06.015Z,97212.75
2019-02-27T04:57:37.210Z,97219.77
2019-02-27T05:00:09.315Z,97228.16
2019-02-27T05:02:42.573Z,97232.96
2019-02-27T05:05:15.304Z,97236.88
2019-02-27T05:07:54.097Z,97241.45
2019-02-27T05:10:23.318Z,97235.50
2019-02-27T05:12:55.905Z,97242.16
2019-02-27T05:15:27.793Z,97244.41
2019-02-27T05:17:59.058Z,97237.13
2019-02-27T05:20:30.894Z,97248.33
2019-02-27T05:23:02.079Z,97246.73
2019-02-27T05:25:34.133Z,97246.48
2019-02-27T05:28:06.013Z,97248.44
2019-02-27T05:30:37.786Z,97252.55
2019-02-27T05:33:09.106Z,97251.64
2019-02-27T05:35:42.538Z,97256.19
2019-02-27T05:38:13.991Z,97260.19
2019-02-27T05:40:45.229Z,97258.61
2019-02-27T05:43:17.114Z,97259.39
2019-02-27T05:45:49.094Z,97263.19
2019-02-27T05:48:21.024Z,97264.45
2019-02-27T05:50:52.988Z,97269.84
2019-02-27T05:53:24.921Z,97276.65
2019-02-27T05:55:56.113Z,97269.53
2019-02-27T05:58:28.368Z,97269.27
2019-02-27T06:01:02.099Z,97269.77
2019-02-27T06:03:33.180Z,97264.56
2019-02-27T06:06:06.818Z,97269.00
2019-02-27T06:08:40.004Z,97273.97
2019-02-27T06:11:12.778Z,97267.02
2019-02-27T06:13:45.040Z,97267.55
2019-02-27T06:16:16.990Z,97266.17
2019-02-27T06:18:48.360Z,97266.13
2019-02-27T06:21:20.197Z,97264.76
2019-02-27T06:23:51.960Z,97263.45
2019-02-27T06:26:24.769Z,97264.05
2019-02-27T06:28:55.974Z,97263.09
2019-02-27T06:31:28.851Z,97270.25
2019-02-27T06:34:00.258Z,97265.36
2019-02-27T06:36:31.604Z,97272.27
2019-02-27T06:39:04.646Z,97272.16
2019-02-27T06:41:35.953Z,97281.65
2019-02-27T06:44:07.968Z,97277.61
2019-02-27T06:46:39.228Z,97280.14
2019-02-27T06:49:11.077Z,97277.08
2019-02-27T06:51:43.860Z,97282.03
2019-02-27T06:54:18.492Z,97277.29
2019-02-27T06:56:51.054Z,97283.98
2019-02-27T06:59:25.219Z,97280.87
2019-02-27T07:01:59.095Z,97289.48
2019-02-27T07:04:30.445Z,97283.97
2019-02-27T07:07:07.053Z,97284.14
2019-02-27T07:09:40.532Z,97279.32
2019-02-27T07:12:12.848Z,97281.14
2019-02-27T07:14:46.116Z,97290.77
2019-02-27T07:17:19.110Z,97293.42
2019-02-27T07:19:52.104Z,97295.91
2019-02-27T07:22:25.114Z,97297.69
2019-02-27T07:24:58.105Z,97298.13
2019-02-27T07:27:31.274Z,97298.58
2019-02-27T07:30:04.897Z,97298.34
2019-02-27T07:32:37.466Z,97290.50
2019-02-27T07:35:11.347Z,97287.77
2019-02-27T07:37:47.233Z,97290.91
2019-02-27T07:40:17.112Z,97287.94
2019-02-27T07:42:51.888Z,97291.33
2019-02-27T07:45:25.419Z,97289.64
2019-02-27T07:47:58.657Z,97283.64
2019-02-27T07:50:29.928Z,97281.55
2019-02-27T07:53:03.275Z,97268.14
2019-02-27T07:55:35.376Z,97274.28
2019-02-27T07:58:07.371Z,97271.65
2019-02-27T08:00:40.409Z,97269.22
2019-02-27T08:03:13.370Z,97273.88
2019-02-27T08:05:46.423Z,97268.95
2019-02-27T08:08:23.305Z,97273.25
2019-02-27T08:10:55.202Z,97270.23
2019-02-27T08:13:29.710Z,97277.05
2019-02-27T08:16:04.249Z,97272.80
2019-02-27T08:18:37.661Z,97266.83
2019-02-27T08:21:10.407Z,97264.44
2019-02-27T08:23:43.544Z,97264.05
2019-02-27T08:26:18.455Z,97260.67
2019-02-27T08:28:52.203Z,97253.62
2019-02-27T08:31:27.914Z,97249.83
2019-02-27T08:33:58.427Z,97243.31
2019-02-27T08:36:30.223Z,97244.88
2019-02-27T08:39:06.221Z,97231.59
2019-02-27T08:41:37.517Z,97227.27
2019-02-27T08:44:08.800Z,97228.67
2019-02-27T08:46:42.295Z,97221.34
2019-02-27T08:49:18.803Z,97216.09
2019-02-27T08:51:50.670Z,97215.83
2019-02-27T08:54:22.560Z,97214.31
2019-02-27T08:56:54.417Z,97220.34
2019-02-27T08:59:28.377Z,97216.01
2019-02-27T09:02:01.974Z,97217.24
2019-02-27T09:04:33.484Z,97217.09
2019-02-27T09:07:07.577Z,97216.98
2019-02-27T09:09:40.856Z,97217.36
2019-02-27T09:12:14.063Z,97216.52
2019-02-27T09:14:46.857Z,97211.41
2019-02-27T09:17:19.656Z,97207.50
2019-02-27T09:19:59.360Z,97212.94
2019-02-27T09:22:33.861Z,97212.05
2019-02-27T09:25:07.855Z,97213.58
2019-02-27T09:27:40.904Z,97204.34
2019-02-27T09:30:14.834Z,97200.03
2019-02-27T09:32:46.770Z,97202.00
2019-02-27T09:35:19.969Z,97191.45
2019-02-27T09:37:52.704Z,97191.26
2019-02-27T09:40:29.414Z,97190.56
2019-02-27T09:43:03.794Z,97176.03
2019-02-27T09:45:36.693Z,97184.08
2019-02-27T09:48:11.449Z,97173.63
2019-02-27T09:50:48.444Z,97172.95
2019-02-27T09:53:18.869Z,97169.75
2019-02-27T09:55:54.377Z,97167.63
2019-02-27T09:58:26.298Z,97168.30
2019-02-27T10:01:03.675Z,97170.75
2019-02-27T10:03:37.314Z,97163.42
2019-02-27T10:06:11.087Z,97167.16
2019-02-27T10:08:43.866Z,97170.57
2019-02-27T10:11:19.542Z,97165.55
2019-02-27T10:13:53.007Z,97161.02
2019-02-27T10:16:26.663Z,97161.39
2019-02-27T10:18:59.114Z,97154.40
2019-02-27T10:21:30.411Z,97161.52
2019-02-27T10:24:04.869Z,97151.63
2019-02-27T10:26:35.983Z,97147.22
2019-02-27T10:29:08.023Z,97141.56
2019-02-27T10:31:43.758Z,97137.05
2019-02-27T10:34:17.583Z,97134.23
2019-02-27T10:36:52.130Z,97122.25
2019-02-27T10:39:24.945Z,97126.14
2019-02-27T10:41:56.146Z,97121.23
2019-02-27T10:44:27.529Z,97117.38
2019-02-27T10:47:00.048Z,97107.12
2019-02-27T10:49:33.206Z,97104.46
2019-02-27T10:52:07.397Z,97104.67
2019-02-27T10:54:40.281Z,97109.57
2019-02-27T10:57:13.021Z,97105.33
2019-02-27T10:59:46.069Z,97111.23
2019-02-27T11:02:19.817Z,97104.81
2019-02-27T11:04:52.633Z,97100.52
2019-02-27T11:07:25.667Z,97093.56
2019-02-27T11:10:00.690Z,97085.53
2019-02-27T11:12:33.083Z,97088.59
2019-02-27T11:15:08.180Z,97081.31
2019-02-27T11:17:40.413Z,97074.14
2019-02-27T11:20:13.142Z,97075.82
2019-02-27T11:22:46.296Z,97073.45
2019-02-27T11:25:22.501Z,97075.41
2019-02-27T11:27:54.134Z,97069.38
2019-02-27T11:30:28.928Z,97059.67
2019-02-27T11:33:00.115Z,97062.52
2019-02-27T11:35:33.317Z,97051.84
2019-02-27T11:38:05.970Z,97049.35
2019-02-27T11:40:41.539Z,97043.29
2019-02-27T11:43:11.260Z,97044.86
2019-02-27T11:45:43.609Z,97043.13
2019-02-27T11:48:15.182Z,97028.02
2019-02-27T11:50:50.975Z,97026.13
2019-02-27T11:53:24.234Z,97021.22
2019-02-27T11:55:55.567Z,97017.16
2019-02-27T11:58:29.222Z,97017.59
2019-02-27T12:01:03.230Z,97006.62
2019-02-27T12:03:36.474Z,97011.67
2019-02-27T12:06:11.928Z,97005.02
2019-02-27T12:08:44.049Z,97001.44
2019-02-27T12:11:16.481Z,96996.35
2019-02-27T12:13:49.381Z,96992.05
2019-02-27T12:16:22.564Z,96995.08
2019-02-27T12:18:55.364Z,96981.02
2019-02-27T12:21:28.360Z,96981.13
2019-02-27T12:24:01.434Z,96982.45
2019-02-27T12:26:34.421Z,96978.73
2019-02-27T12:29:08.086Z,96984.65
2019-02-27T12:31:40.567Z,96974.41
2019-02-27T12:34:16.906Z,96972.58
2019-02-27T12:36:49.938Z,96975.53
2019-02-27T12:39:21.831Z,96973.63
2019-02-27T12:41:55.461Z,96966.84
2019-02-27T12:44:28.375Z,96956.23
2019-02-27T12:47:05.561Z,96954.38
2019-02-27T12:49:37.031Z,96959.03
2019-02-27T12:52:12.113Z,96954.52
2019-02-27T12:54:43.639Z,96956.48
2019-02-27T12:57:18.263Z,96950.63
2019-02-27T12:59:50.353Z,96950.01
2019-02-27T13:02:35.294Z,96937.41
2019-02-27T13:05:03.393Z,96941.43
2019-02-27T13:07:35.587Z,96939.55
2019-02-27T13:10:13.322Z,96942.58
2019-02-27T13:12:49.230Z,96944.34
2019-02-27T13:15:24.670Z,96930.75
2019-02-27T13:17:58.856Z,96931.72
2019-02-27T13:20:30.132Z,96925.24
2019-02-27T13:23:05.164Z,96926.46
2019-02-27T13:25:37.119Z,96924.25
2019-02-27T13:28:09.808Z,96920.44
2019-02-27T13:30:43.761Z,96914.65
2019-02-27T13:33:17.969Z,96910.62
2019-02-27T13:35:49.656Z,96907.58
2019-02-27T13:38:24.431Z,96903.30
2019-02-27T13:40:55.694Z,96897.77
2019-02-27T13:43:30.184Z,96887.86
2019-02-27T13:46:02.344Z,96889.92
2019-02-27T13:48:34.132Z,96889.97
2019-02-27T13:51:06.702Z,96888.47
2019-02-27T13:53:37.922Z,96884.20
2019-02-27T13:56:09.669Z,96879.00
2019-02-27T13:58:44.587Z,96881.45
2019-02-27T14:01:16.007Z,96876.89
2019-02-27T14:03:49.888Z,96881.94
2019-02-27T14:06:22.916Z,96880.67
2019-02-27T14:08:54.346Z,96878.16
2019-02-27T14:11:26.867Z,96873.03
2019-02-27T14:14:00.518Z,96878.70
2019-02-27T14:16:34.743Z,96874.72
2019-02-27T14:19:07.900Z,96876.30
2019-02-27T14:21:41.285Z,96878.11
2019-02-27T14:24:20.205Z,96865.63
2019-02-27T14:26:50.341Z,96864.59
2019-02-27T14:29:22.956Z,96859.88
2019-02-27T14:31:56.597Z,96847.70
2019-02-27T14:34:28.977Z,96840.34
2019-02-27T14:37:01.078Z,96843.67
2019-02-27T14:39:35.383Z,96845.36
2019-02-27T14:42:08.560Z,96840.52
2019-02-27T14:44:41.134Z,96832.02
2019-02-27T14:47:16.407Z,96835.44
2019-02-27T14:49:49.300Z,96837.47
2019-02-27T14:52:24.793Z,96837.61
2019-02-27T14:54:55.976Z,96831.59
2019-02-27T14:57:28.379Z,96828.83
2019-02-27T15:00:05.662Z,96835.05
2019-02-27T15:02:37.832Z,96837.20
2019-02-27T15:05:09.272Z,96842.25
2019-02-27T15:07:41.869Z,96845.44
2019-02-27T15:10:16.162Z,96829.06
2019-02-27T15:12:54.321Z,96823.89
2019-02-27T15:15:26.886Z,96814.17
2019-02-27T15:17:59.393Z,96818.72
2019-02-27T15:20:31.403Z,96818.56
2019-02-27T15:23:05.440Z,96818.84
2019-02-27T15:25:42.217Z,96812.03
2019-02-27T15:28:14.148Z,96814.68
2019-02-27T15:30:47.434Z,96803.51
2019-02-27T15:33:19.270Z,96809.89
2019-02-27T15:35:55.140Z,96818.18
2019-02-27T15:38:24.209Z,96814.33
2019-02-27T15:40:56.188Z,96814.38
2019-02-27T15:43:28.406Z,96813.32
2019-02-27T15:46:00.751Z,96813.28
2019-02-27T15:48:33.464Z,96765.66
2019-02-27T15:51:07.295Z,96811.27
2019-02-27T15:53:41.371Z,96814.39
2019-02-27T15:56:14.344Z,96820.04
2019-02-27T15:58:47.339Z,96825.47
2019-02-27T16:01:20.336Z,96812.42
2019-02-27T16:03:52.842Z,96815.55
2019-02-27T16:06:25.655Z,96814.55
2019-02-27T16:08:58.239Z,96806.67
2019-02-27T16:11:30.766Z,96808.02
2019-02-27T16:14:09.161Z,96796.97
2019-02-27T16:16:37.847Z,96793.20
2019-02-27T16:19:14.804Z,96792.41
2019-02-27T16:21:46.366Z,96790.66
2019-02-27T16:24:19.586Z,96790.34
2019-02-27T16:26:52.587Z,96789.44
2019-02-27T16:29:24.512Z,96787.18
2019-02-27T16:31:58.407Z,96784.63
2019-02-27T16:34:33.162Z,96782.50
2019-02-27T16:37:04.515Z,96784.51
2019-02-27T16:39:41.420Z,96785.37
2019-02-27T16:42:11.516Z,96783.73
2019-02-27T16:44:43.775Z,96785.59
2019-02-27T16:47:19.912Z,96786.52
2019-02-27T16:49:54.246Z,96793.08
2019-02-27T16:52:27.718Z,96794.02
2019-02-27T16:55:03.158Z,96793.66
2019-02-27T16:57:35.066Z,96784.89
2019-02-27T17:00:10.094Z,96792.27
2019-02-27T17:02:44.255Z,96786.66
2019-02-27T17:05:18.276Z,96785.84
2019-02-27T17:07:51.449Z,96788.48
2019-02-27T17:10:29.347Z,96793.05
2019-02-27T17:13:02.871Z,96790.22
2019-02-27T17:15:36.923Z,96790.41
2019-02-27T17:18:08.306Z,96791.34
2019-02-27T17:20:45.842Z,96782.76
2019-02-27T17:23:14.776Z,96779.89
2019-02-27T17:25:47.772Z,96785.36
2019-02-27T17:28:19.736Z,96774.22
2019-02-27T17:30:51.838Z,96782.28
2019-02-27T17:33:23.830Z,96773.17
2019-02-27T17:35:59.253Z,96772.02
2019-02-27T17:38:30.704Z,96767.73
2019-02-27T17:41:04.792Z,96771.39
2019-02-27T17:43:37.102Z,96768.38
2019-02-27T17:46:09.012Z,96764.80
2019-02-27T17:48:43.315Z,96765.30
2019-02-27T17:51:13.924Z,96757.27
2019-02-27T17:53:46.977Z,96764.08
2019-02-27T17:56:21.023Z,96763.07
2019-02-27T17:58:52.968Z,96763.10
2019-02-27T18:01:26.072Z,96761.35
2019-02-27T18:04:01.709Z,96761.69
2019-02-27T18:06:34.823Z,96752.08
2019-02-27T18:09:10.197Z,96752.50
2019-02-27T18:11:45.481Z,96750.98
2019-02-27T18:14:20.241Z,96748.42
2019-02-27T18:16:54.672Z,96744.20
2019-02-27T18:19:26.011Z,96735.73
2019-02-27T18:21:59.190Z,96740.89
2019-02-27T18:24:34.185Z,96730.97
2019-02-27T18:27:06.071Z,96726.28
2019-02-27T18:29:38.310Z,96728.02
2019-02-27T18:32:10.374Z,96725.91
2019-02-27T18:34:44.159Z,96718.25
2019-02-27T18:37:18.995Z,96728.23
2019-02-27T18:39:52.276Z,96718.59
2019-02-27T18:42:24.179Z,96713.38
2019-02-27T18:44:57.021Z,96711.13
2019-02-27T18:47:32.092Z,96705.02
2019-02-27T18:50:03.279Z,96705.59
2019-02-27T18:52:38.210Z,96701.60
2019-02-27T18:55:11.051Z,96698.22
2019-02-27T18:57:47.254Z,96694.92
2019-02-27T19:00:22.000Z,96693.20
2019-02-27T19:02:57.116Z,96692.41
2019-02-27T19:05:30.626Z,96693.10
2019-02-27T19:08:04.960Z,96687.56
2019-02-27T19:10:41.423Z,96683.48
2019-02-27T19:13:12.383Z,96683.92
2019-02-27T19:15:46.281Z,96676.45
2019-02-27T19:18:20.266Z,96679.64
2019-02-27T19:20:53.339Z,96669.05
2019-02-27T19:23:25.732Z,96676.61
2019-02-27T19:26:00.020Z,96671.78
2019-02-27T19:28:31.221Z,96668.05
2019-02-27T19:31:05.453Z,96661.41
2019-02-27T19:33:37.675Z,96660.36
2019-02-27T19:36:18.958Z,96649.27
2019-02-27T19:38:47.708Z,96655.63
2019-02-27T19:41:19.437Z,96658.08
2019-02-27T19:44:08.708Z,96652.63
2019-02-27T19:46:42.332Z,96654.44
2019-02-27T19:49:15.889Z,96646.58
2019-02-27T19:51:52.152Z,96645.69
2019-02-27T19:54:23.552Z,96638.58
2019-02-27T19:56:59.006Z,96629.80
2019-02-27T19:59:30.277Z,96629.42
2019-02-27T20:02:02.345Z,96632.96
2019-02-27T20:04:33.609Z,96625.31
2019-02-27T20:07:06.998Z,96621.78
2019-02-27T20:09:42.044Z,96618.73
2019-02-27T20:12:15.907Z,96611.41
2019-02-27T20:14:49.329Z,96609.19
2019-02-27T20:17:22.468Z,96598.76
2019-02-27T20:19:54.680Z,96600.42
2019-02-27T20:22:26.626Z,96593.01
2019-02-27T20:25:02.198Z,96596.33
2019-02-27T20:27:33.690Z,96591.59
2019-02-27T20:30:05.776Z,96589.03
2019-02-27T20:32:40.261Z,96582.25
2019-02-27T20:35:13.424Z,96585.33
2019-02-27T20:37:45.687Z,96585.06
2019-02-27T20:40:17.817Z,96585.27
2019-02-27T20:42:54.431Z,96580.63
2019-02-27T20:45:23.767Z,96575.30
2019-02-27T20:48:01.900Z,96570.05
2019-02-27T20:50:39.669Z,96569.28
2019-02-27T20:53:13.613Z,96570.11
2019-02-27T20:55:46.759Z,96572.25
2019-02-27T20:58:22.032Z,96572.02
2019-02-27T21:00:54.363Z,96569.22
2019-02-27T21:03:28.060Z,96561.05
2019-02-27T21:06:02.989Z,96568.34
2019-02-27T21:08:37.183Z,96570.89
2019-02-27T21:11:12.122Z,96567.69
2019-02-27T21:13:49.331Z,96572.99
2019-02-27T21:16:18.824Z,96559.39
2019-02-27T21:18:52.938Z,96561.67
2019-02-27T21:21:26.850Z,96559.34
2019-02-27T21:23:58.862Z,96553.30
2019-02-27T21:26:32.857Z,96556.05
2019-02-27T21:29:08.786Z,96552.31
2019-02-27T21:31:44.425Z,96553.11
2019-02-27T21:34:20.111Z,96549.29
2019-02-27T21:36:50.696Z,96542.56
2019-02-27T21:39:25.236Z,96537.84
2019-02-27T21:41:58.799Z,96528.84
2019-02-27T21:44:34.331Z,96522.62
2019-02-27T21:47:05.799Z,96517.45
2019-02-27T21:49:39.866Z,96512.63
2019-02-27T21:52:15.341Z,96508.36
2019-02-27T21:54:47.823Z,96503.41
2019-02-27T21:57:19.772Z,96498.72
2019-02-27T21:59:51.962Z,96498.80
2019-02-27T22:02:27.202Z,96496.26
2019-02-27T22:04:57.958Z,96491.21
2019-02-27T22:07:47.646Z,96486.61
2019-02-27T22:10:32.461Z,96484.45
2019-02-27T22:13:09.373Z,96480.45
2019-02-27T22:15:41.902Z,96477.78
2019-02-27T22:18:15.112Z,96481.65
2019-02-27T22:20:49.715Z,96479.05
2019-02-27T22:23:20.973Z,96469.38
2019-02-27T22:25:52.299Z,96468.61
2019-02-27T22:28:25.238Z,96464.23
2019-02-27T22:30:58.950Z,96461.60
2019-02-27T22:33:32.751Z,96462.34
2019-02-27T22:36:06.088Z,96460.81
2019-02-27T22:38:39.117Z,96456.56
2019-02-27T22:41:12.128Z,96450.91
2019-02-27T22:43:45.082Z,96449.67
2019-02-27T22:46:18.025Z,96445.64
2019-02-27T22:48:51.017Z,96438.19
2019-02-27T22:51:22.975Z,96437.09
2019-02-27T22:53:54.459Z,96426.23
2019-02-27T22:56:27.957Z,96419.91
2019-02-27T22:59:03.107Z,96422.50
2019-02-27T23:01:43.486Z,96411.72
2019-02-27T23:04:18.341Z,96406.23
2019-02-27T23:06:51.470Z,96401.84
2019-02-27T23:09:25.611Z,96405.75
2019-02-27T23:11:57.024Z,96403.25
2019-02-27T23:14:29.081Z,96399.83
2019-02-27T23:17:03.028Z,96396.19
2019-02-27T23:19:36.290Z,96392.46
2019-02-27T23:22:10.548Z,96389.38
2019-02-27T23:24:43.882Z,96383.41
2019-02-27T23:27:15.306Z,96377.86
2019-02-27T23:29:48.156Z,96374.30
2019-02-27T23:32:21.164Z,96373.00
2019-02-27T23:34:55.626Z,96373.53
2019-02-27T23:37:29.569Z,96363.66
2019-02-27T23:40:03.544Z,96372.67
2019-02-27T23:42:37.835Z,96365.45
2019-02-27T23:45:11.136Z,96368.80
2019-02-27T23:47:45.274Z,96363.56
2019-02-27T23:50:19.404Z,96365.84
2019-02-27T23:52:53.233Z,96360.46
2019-02-27T23:55:25.330Z,96362.83
2019-02-27T23:57:59.352Z,96359.55
